createdAt,value
2019-04-12T00:00:26.022Z,1014.16
2019-04-12T00:01:25.716Z,1014.19
2019-04-12T00:02:37.603Z,1014.21
2019-04-12T00:03:30.791Z,1014.17
2019-04-12T00:04:48.678Z,1014.19
2019-04-12T00:05:41.618Z,1014.20
2019-04-12T00:06:48.894Z,1014.23
2019-04-12T00:07:52.698Z,1014.23
2019-04-12T00:09:05.088Z,1014.22
2019-04-12T00:10:23.627Z,1014.23
2019-04-12T00:11:10.836Z,1014.20
2019-04-12T00:12:10.441Z,1014.24
2019-04-12T00:13:18.223Z,1014.23
2019-04-12T00:14:23.960Z,1014.24
2019-04-12T00:15:31.854Z,1014.22
2019-04-12T00:16:43.789Z,1014.21
2019-04-12T00:17:47.227Z,1014.23
2019-04-12T00:18:48.986Z,1014.22
2019-04-12T00:20:00.863Z,1014.24
2019-04-12T00:21:00.868Z,1014.25
2019-04-12T00:22:02.108Z,1014.27
2019-04-12T00:23:13.776Z,1014.25
2019-04-12T00:24:17.333Z,1014.29
2019-04-12T00:25:25.065Z,1014.33
2019-04-12T00:26:24.773Z,1014.27
2019-04-12T00:27:35.831Z,1014.31
2019-04-12T00:28:32.658Z,1014.27
2019-04-12T00:29:40.659Z,1014.31
2019-04-12T00:30:51.122Z,1014.27
2019-04-12T00:31:54.493Z,1014.26
2019-04-12T00:33:06.585Z,1014.22
2019-04-12T00:34:00.973Z,1014.26
2019-04-12T00:35:13.353Z,1014.22
2019-04-12T00:36:19.867Z,1014.24
2019-04-12T00:37:18.696Z,1014.23
2019-04-12T00:38:28.842Z,1014.24
2019-04-12T00:39:39.288Z,1014.21
2019-04-12T00:40:39.707Z,1014.25
2019-04-12T00:41:42.988Z,1014.29
2019-04-12T00:42:52.013Z,1014.27
2019-04-12T00:43:55.805Z,1014.28
2019-04-12T00:45:04.515Z,1014.28
2019-04-12T00:46:06.230Z,1014.24
2019-04-12T00:47:08.980Z,1014.27
2019-04-12T00:48:12.734Z,1014.29
2019-04-12T00:49:25.431Z,1014.25
2019-04-12T00:50:26.472Z,1014.25
2019-04-12T00:51:43.276Z,1014.26
2019-04-12T00:52:43.056Z,1014.30
2019-04-12T00:53:46.147Z,1014.29
2019-04-12T00:54:51.279Z,1014.26
2019-04-12T00:55:54.861Z,1014.29
2019-04-12T00:56:56.814Z,1014.27
2019-04-12T00:58:09.007Z,1014.28
2019-04-12T00:59:17.241Z,1014.25
2019-04-12T01:00:21.106Z,1014.22
2019-04-12T01:01:19.216Z,1014.23
2019-04-12T01:02:24.905Z,1014.20
2019-04-12T01:03:33.514Z,1014.21
2019-04-12T01:04:44.097Z,1014.19
2019-04-12T01:05:41.514Z,1014.20
2019-04-12T01:06:54.732Z,1014.24
2019-04-12T01:07:59.552Z,1014.23
2019-04-12T01:09:03.243Z,1014.25
2019-04-12T01:10:12.673Z,1014.23
2019-04-12T01:11:16.265Z,1014.26
2019-04-12T01:12:21.389Z,1014.25
2019-04-12T01:13:28.566Z,1014.25
2019-04-12T01:14:35.535Z,1014.30
2019-04-12T01:15:40.980Z,1014.25
2019-04-12T01:16:47.120Z,1014.24
2019-04-12T01:17:48.154Z,1014.26
2019-04-12T01:18:50.924Z,1014.23
2019-04-12T01:19:50.724Z,1014.25
2019-04-12T01:21:00.975Z,1014.27
2019-04-12T01:22:08.211Z,1014.21
2019-04-12T01:23:18.497Z,1014.28
2019-04-12T01:24:15.330Z,1014.30
2019-04-12T01:25:33.769Z,1014.27
2019-04-12T01:26:24.266Z,1014.30
2019-04-12T01:27:36.649Z,1014.26
2019-04-12T01:28:43.419Z,1014.30
2019-04-12T01:29:51.410Z,1014.24
2019-04-12T01:30:51.316Z,1014.27
2019-04-12T01:31:54.494Z,1014.28
2019-04-12T01:32:59.314Z,1014.24
2019-04-12T01:34:13.145Z,1014.22
2019-04-12T01:35:22.984Z,1014.24
2019-04-12T01:36:19.815Z,1014.25
2019-04-12T01:37:25.864Z,1014.25
2019-04-12T01:38:27.099Z,1014.25
2019-04-12T01:39:49.129Z,1014.26
2019-04-12T01:40:43.906Z,1014.24
2019-04-12T01:41:44.937Z,1014.23
2019-04-12T01:42:58.771Z,1014.29
2019-04-12T01:43:58.675Z,1014.21
2019-04-12T01:45:00.729Z,1014.27
2019-04-12T01:46:05.652Z,1014.26
2019-04-12T01:47:17.436Z,1014.29
2019-04-12T01:48:15.290Z,1014.30
2019-04-12T01:49:22.568Z,1014.28
2019-04-12T01:50:32.709Z,1014.28
2019-04-12T01:51:33.435Z,1014.26
2019-04-12T01:52:52.487Z,1014.26
2019-04-12T01:53:45.942Z,1014.27
2019-04-12T01:54:52.094Z,1014.29
2019-04-12T01:55:59.064Z,1014.30
2019-04-12T01:57:00.125Z,1014.24
2019-04-12T01:58:11.976Z,1014.22
2019-04-12T01:59:18.641Z,1014.22
2019-04-12T02:00:24.591Z,1014.24
2019-04-12T02:01:23.570Z,1014.20
2019-04-12T02:02:27.988Z,1014.21
2019-04-12T02:03:40.891Z,1014.20
2019-04-12T02:04:38.643Z,1014.22
2019-04-12T02:05:50.435Z,1014.18
2019-04-12T02:06:54.840Z,1014.20
2019-04-12T02:08:06.008Z,1014.19
2019-04-12T02:09:07.242Z,1014.18
2019-04-12T02:10:14.313Z,1014.18
2019-04-12T02:11:20.675Z,1014.21
2019-04-12T02:12:17.503Z,1014.17
2019-04-12T02:13:28.158Z,1014.19
2019-04-12T02:14:31.339Z,1014.20
2019-04-12T02:15:39.128Z,1014.20
2019-04-12T02:16:40.583Z,1014.17
2019-04-12T02:17:54.203Z,1014.20
2019-04-12T02:18:58.001Z,1014.16
2019-04-12T02:20:03.020Z,1014.20
2019-04-12T02:21:12.347Z,1014.22
2019-04-12T02:22:09.993Z,1014.22
2019-04-12T02:23:19.224Z,1014.22
2019-04-12T02:24:28.747Z,1014.22
2019-04-12T02:25:28.344Z,1014.21
2019-04-12T02:26:45.550Z,1014.22
2019-04-12T02:27:47.404Z,1014.22
2019-04-12T02:28:40.351Z,1014.21
2019-04-12T02:29:52.025Z,1014.23
2019-04-12T02:30:48.555Z,1014.19
2019-04-12T02:32:01.054Z,1014.23
2019-04-12T02:33:00.240Z,1014.19
2019-04-12T02:34:21.351Z,1014.20
2019-04-12T02:35:28.104Z,1014.19
2019-04-12T02:36:28.019Z,1014.21
2019-04-12T02:37:22.491Z,1014.18
2019-04-12T02:38:36.214Z,1014.15
2019-04-12T02:39:36.226Z,1014.16
2019-04-12T02:40:43.407Z,1014.15
2019-04-12T02:41:58.156Z,1014.09
2019-04-12T02:42:54.984Z,1014.13
2019-04-12T02:43:58.985Z,1014.15
2019-04-12T02:45:18.137Z,1014.15
2019-04-12T02:46:15.484Z,1014.16
2019-04-12T02:47:17.741Z,1014.12
2019-04-12T02:48:21.542Z,1014.15
2019-04-12T02:49:26.463Z,1014.14
2019-04-12T02:50:31.801Z,1014.14
2019-04-12T02:51:36.610Z,1014.11
2019-04-12T02:52:42.355Z,1014.08
2019-04-12T02:53:43.280Z,1014.09
2019-04-12T02:54:56.197Z,1014.08
2019-04-12T02:56:10.739Z,1014.10
2019-04-12T02:57:05.424Z,1014.11
2019-04-12T02:58:10.654Z,1014.08
2019-04-12T02:59:16.086Z,1014.09
2019-04-12T03:00:29.812Z,1014.10
2019-04-12T03:01:25.109Z,1014.07
2019-04-12T03:02:45.814Z,1014.08
2019-04-12T03:03:37.414Z,1014.08
2019-04-12T03:04:46.022Z,1014.10
2019-04-12T03:05:47.979Z,1014.09
2019-04-12T03:06:55.557Z,1014.09
2019-04-12T03:07:58.741Z,1014.10
2019-04-12T03:09:00.488Z,1014.13
2019-04-12T03:10:08.073Z,1014.15
2019-04-12T03:11:16.782Z,1014.15
2019-04-12T03:12:44.127Z,1014.13
2019-04-12T03:13:31.541Z,1014.16
2019-04-12T03:14:38.305Z,1014.17
2019-04-12T03:15:38.926Z,1014.15
2019-04-12T03:16:40.264Z,1014.18
2019-04-12T03:17:49.486Z,1014.14
2019-04-12T03:19:01.591Z,1014.16
2019-04-12T03:20:10.194Z,1014.13
2019-04-12T03:21:10.811Z,1014.12
2019-04-12T03:22:11.533Z,1014.18
2019-04-12T03:23:18.499Z,1014.14
2019-04-12T03:24:26.799Z,1014.13
2019-04-12T03:25:29.065Z,1014.14
2019-04-12T03:26:40.878Z,1014.15
2019-04-12T03:27:34.299Z,1014.15
2019-04-12T03:28:52.434Z,1014.20
2019-04-12T03:29:55.510Z,1014.14
2019-04-12T03:30:52.054Z,1014.22
2019-04-12T03:32:08.543Z,1014.17
2019-04-12T03:33:10.491Z,1014.15
2019-04-12T03:34:17.452Z,1014.19
2019-04-12T03:35:17.779Z,1014.18
2019-04-12T03:36:26.479Z,1014.21
2019-04-12T03:37:34.367Z,1014.15
2019-04-12T03:38:39.292Z,1014.11
2019-04-12T03:39:40.012Z,1014.17
2019-04-12T03:40:49.441Z,1014.14
2019-04-12T03:41:55.901Z,1014.14
2019-04-12T03:42:58.159Z,1014.16
2019-04-12T03:44:00.928Z,1014.15
2019-04-12T03:45:10.977Z,1014.20
2019-04-12T03:46:16.814Z,1014.14
2019-04-12T03:47:12.728Z,1014.15
2019-04-12T03:48:27.691Z,1014.17
2019-04-12T03:49:31.374Z,1014.12
2019-04-12T03:50:32.204Z,1014.17
2019-04-12T03:51:38.767Z,1014.16
2019-04-12T03:52:51.572Z,1014.13
2019-04-12T03:54:01.511Z,1014.10
2019-04-12T03:54:59.474Z,1014.07
2019-04-12T03:56:08.098Z,1014.08
2019-04-12T03:57:08.598Z,1014.09
2019-04-12T03:58:18.231Z,1014.03
2019-04-12T03:59:20.113Z,1014.08
2019-04-12T04:00:26.026Z,1014.09
2019-04-12T04:01:28.797Z,1014.08
2019-04-12T04:02:35.561Z,1014.07
2019-04-12T04:03:45.298Z,1014.03
2019-04-12T04:04:52.072Z,1014.04
2019-04-12T04:05:56.475Z,1014.05
2019-04-12T04:07:00.679Z,1014.03
2019-04-12T04:08:01.795Z,1014.03
2019-04-12T04:09:07.873Z,1014.04
2019-04-12T04:10:12.782Z,1014.06
2019-04-12T04:11:18.315Z,1014.07
2019-04-12T04:12:31.229Z,1014.02
2019-04-12T04:13:27.550Z,1014.01
2019-04-12T04:14:40.792Z,1014.04
2019-04-12T04:15:54.186Z,1014.02
2019-04-12T04:16:55.220Z,1014.01
2019-04-12T04:17:56.055Z,1013.97
2019-04-12T04:19:06.906Z,1014.04
2019-04-12T04:20:02.409Z,1014.05
2019-04-12T04:21:14.804Z,1014.01
2019-04-12T04:22:12.784Z,1014.02
2019-04-12T04:23:22.807Z,1014.06
2019-04-12T04:24:28.544Z,1014.02
2019-04-12T04:25:29.941Z,1014.02
2019-04-12T04:26:37.979Z,1014.12
2019-04-12T04:27:44.846Z,1014.09
2019-04-12T04:28:56.638Z,1014.10
2019-04-12T04:29:55.930Z,1014.10
2019-04-12T04:30:58.389Z,1014.09
2019-04-12T04:32:05.872Z,1014.08
2019-04-12T04:33:12.129Z,1014.09
2019-04-12T04:34:17.757Z,1014.11
2019-04-12T04:35:17.358Z,1014.07
2019-04-12T04:36:32.221Z,1014.13
2019-04-12T04:37:31.227Z,1014.10
2019-04-12T04:38:38.883Z,1014.06
2019-04-12T04:39:43.196Z,1014.10
2019-04-12T04:40:50.779Z,1014.15
2019-04-12T04:41:51.713Z,1014.13
2019-04-12T04:43:02.258Z,1014.10
2019-04-12T04:44:04.929Z,1014.15
2019-04-12T04:45:09.651Z,1014.14
2019-04-12T04:46:32.588Z,1014.17
2019-04-12T04:47:18.271Z,1014.16
2019-04-12T04:48:25.433Z,1014.11
2019-04-12T04:49:35.476Z,1014.18
2019-04-12T04:50:47.157Z,1014.16
2019-04-12T04:51:46.446Z,1014.15
2019-04-12T04:52:54.233Z,1014.20
2019-04-12T04:53:56.398Z,1014.17
2019-04-12T04:55:06.339Z,1014.22
2019-04-12T04:56:15.961Z,1014.19
2019-04-12T04:57:13.932Z,1014.21
2019-04-12T04:58:19.055Z,1014.17
2019-04-12T04:59:25.108Z,1014.21
2019-04-12T05:00:33.613Z,1014.21
2019-04-12T05:01:32.696Z,1014.18
2019-04-12T05:02:41.809Z,1014.23
2019-04-12T05:03:41.110Z,1014.25
2019-04-12T05:04:47.046Z,1014.22
2019-04-12T05:06:01.595Z,1014.24
2019-04-12T05:06:59.963Z,1014.23
2019-04-12T05:08:13.597Z,1014.21
2019-04-12T05:09:24.146Z,1014.24
2019-04-12T05:10:15.252Z,1014.20
2019-04-12T05:11:24.566Z,1014.20
2019-04-12T05:12:27.029Z,1014.30
2019-04-12T05:13:41.275Z,1014.28
2019-04-12T05:14:37.185Z,1014.27
2019-04-12T05:15:50.403Z,1014.30
2019-04-12T05:17:03.209Z,1014.28
2019-04-12T05:17:59.223Z,1014.30
2019-04-12T05:19:24.010Z,1014.32
2019-04-12T05:20:11.003Z,1014.30
2019-04-12T05:21:14.394Z,1014.31
2019-04-12T05:22:19.726Z,1014.34
2019-04-12T05:23:19.733Z,1014.33
2019-04-12T05:24:34.179Z,1014.35
2019-04-12T05:25:29.789Z,1014.36
2019-04-12T05:26:46.683Z,1014.34
2019-04-12T05:27:47.924Z,1014.33
2019-04-12T05:29:00.524Z,1014.42
2019-04-12T05:29:56.229Z,1014.39
2019-04-12T05:30:59.102Z,1014.35
2019-04-12T05:32:04.334Z,1014.48
2019-04-12T05:33:22.159Z,1014.48
2019-04-12T05:34:20.333Z,1014.49
2019-04-12T05:35:24.014Z,1014.46
2019-04-12T05:36:30.472Z,1014.46
2019-04-12T05:37:42.257Z,1014.46
2019-04-12T05:38:46.769Z,1014.43
2019-04-12T05:39:47.493Z,1014.47
2019-04-12T05:40:56.918Z,1014.44
2019-04-12T05:41:52.933Z,1014.49
2019-04-12T05:43:02.054Z,1014.47
2019-04-12T05:44:08.416Z,1014.46
2019-04-12T05:45:08.006Z,1014.52
2019-04-12T05:46:15.179Z,1014.51
2019-04-12T05:47:20.715Z,1014.54
2019-04-12T05:48:26.562Z,1014.53
2019-04-12T05:49:34.964Z,1014.54
2019-04-12T05:50:48.692Z,1014.52
2019-04-12T05:51:45.322Z,1014.51
2019-04-12T05:52:56.078Z,1014.52
2019-04-12T05:54:03.002Z,1014.52
2019-04-12T05:55:06.760Z,1014.59
2019-04-12T05:56:04.193Z,1014.56
2019-04-12T05:57:08.193Z,1014.55
2019-04-12T05:58:19.973Z,1014.62
2019-04-12T05:59:26.329Z,1014.56
2019-04-12T06:00:32.379Z,1014.57
2019-04-12T06:01:30.849Z,1014.60
2019-04-12T06:02:42.224Z,1014.59
2019-04-12T06:03:46.940Z,1014.59
2019-04-12T06:04:49.304Z,1014.56
2019-04-12T06:06:01.549Z,1014.59
2019-04-12T06:07:01.916Z,1014.61
2019-04-12T06:08:05.093Z,1014.57
2019-04-12T06:09:14.825Z,1014.62
2019-04-12T06:10:16.777Z,1014.62
2019-04-12T06:11:22.734Z,1014.66
2019-04-12T06:12:39.218Z,1014.65
2019-04-12T06:13:34.310Z,1014.63
2019-04-12T06:14:36.262Z,1014.61
2019-04-12T06:15:49.787Z,1014.64
2019-04-12T06:17:00.849Z,1014.64
2019-04-12T06:18:03.468Z,1014.64
2019-04-12T06:19:04.354Z,1014.61
2019-04-12T06:20:09.064Z,1014.62
2019-04-12T06:21:10.506Z,1014.67
2019-04-12T06:22:14.611Z,1014.63
2019-04-12T06:23:23.114Z,1014.65
2019-04-12T06:24:36.029Z,1014.62
2019-04-12T06:25:35.219Z,1014.65
2019-04-12T06:26:45.975Z,1014.62
2019-04-12T06:27:43.724Z,1014.66
2019-04-12T06:28:51.726Z,1014.66
2019-04-12T06:30:01.923Z,1014.69
2019-04-12T06:31:06.590Z,1014.64
2019-04-12T06:32:11.714Z,1014.65
2019-04-12T06:33:16.732Z,1014.67
2019-04-12T06:34:27.699Z,1014.69
2019-04-12T06:35:25.451Z,1014.69
2019-04-12T06:36:36.520Z,1014.67
2019-04-12T06:37:33.564Z,1014.64
2019-04-12T06:38:46.011Z,1014.73
2019-04-12T06:39:45.658Z,1014.73
2019-04-12T06:40:57.236Z,1014.72
2019-04-12T06:41:58.975Z,1014.72
2019-04-12T06:43:02.058Z,1014.73
2019-04-12T06:44:10.867Z,1014.73
2019-04-12T06:45:21.427Z,1014.75
2019-04-12T06:46:32.902Z,1014.74
2019-04-12T06:47:39.765Z,1014.75
2019-04-12T06:48:26.669Z,1014.74
2019-04-12T06:49:35.785Z,1014.77
2019-04-12T06:50:41.729Z,1014.75
2019-04-12T06:51:46.857Z,1014.78
2019-04-12T06:52:59.872Z,1014.75
2019-04-12T06:54:00.386Z,1014.75
2019-04-12T06:55:01.624Z,1014.75
2019-04-12T06:56:05.730Z,1014.82
2019-04-12T06:57:22.559Z,1014.78
2019-04-12T06:58:17.518Z,1014.79
2019-04-12T06:59:29.207Z,1014.80
2019-04-12T07:00:32.386Z,1014.82
2019-04-12T07:01:42.422Z,1014.76
2019-04-12T07:02:44.072Z,1014.78
2019-04-12T07:03:56.057Z,1014.80
2019-04-12T07:04:57.084Z,1014.74
2019-04-12T07:05:58.323Z,1014.76
2019-04-12T07:07:05.812Z,1014.79
2019-04-12T07:08:11.682Z,1014.72
2019-04-12T07:09:25.886Z,1014.64
2019-04-12T07:10:22.725Z,1014.71
2019-04-12T07:11:34.618Z,1014.62
2019-04-12T07:12:34.825Z,1014.61
2019-04-12T07:13:46.396Z,1014.65
2019-04-12T07:14:44.560Z,1014.63
2019-04-12T07:15:49.583Z,1014.64
2019-04-12T07:16:58.909Z,1014.63
2019-04-12T07:18:02.910Z,1014.66
2019-04-12T07:19:05.375Z,1014.64
2019-04-12T07:20:23.507Z,1014.64
2019-04-12T07:21:16.345Z,1014.68
2019-04-12T07:22:24.034Z,1014.66
2019-04-12T07:23:30.090Z,1014.64
2019-04-12T07:24:44.936Z,1014.66
2019-04-12T07:25:44.021Z,1014.66
2019-04-12T07:26:45.769Z,1014.66
2019-04-12T07:28:01.239Z,1014.65
2019-04-12T07:28:58.682Z,1014.64
2019-04-12T07:30:01.762Z,1014.64
2019-04-12T07:31:17.745Z,1014.63
2019-04-12T07:32:17.547Z,1014.65
2019-04-12T07:33:24.729Z,1014.64
2019-04-12T07:34:23.502Z,1014.56
2019-04-12T07:35:30.672Z,1014.61
2019-04-12T07:36:36.318Z,1014.57
2019-04-12T07:37:44.618Z,1014.61
2019-04-12T07:38:46.259Z,1014.62
2019-04-12T07:39:52.510Z,1014.62
2019-04-12T07:40:59.178Z,1014.59
2019-04-12T07:42:08.499Z,1014.57
2019-04-12T07:43:14.548Z,1014.65
2019-04-12T07:44:19.985Z,1014.62
2019-04-12T07:45:20.507Z,1014.64
2019-04-12T07:46:23.890Z,1014.60
2019-04-12T07:47:33.010Z,1014.62
2019-04-12T07:48:42.140Z,1014.63
2019-04-12T07:49:49.099Z,1014.69
2019-04-12T07:50:53.716Z,1014.65
2019-04-12T07:51:51.065Z,1014.63
2019-04-12T07:53:01.716Z,1014.67
2019-04-12T07:54:06.540Z,1014.72
2019-04-12T07:55:17.805Z,1014.63
2019-04-12T07:56:17.718Z,1014.70
2019-04-12T07:57:33.384Z,1014.67
2019-04-12T07:58:29.404Z,1014.70
2019-04-12T07:59:40.674Z,1014.67
2019-04-12T08:00:42.415Z,1014.65
2019-04-12T08:01:57.558Z,1014.65
2019-04-12T08:02:54.617Z,1014.71
2019-04-12T08:04:02.405Z,1014.71
2019-04-12T08:05:07.239Z,1014.69
2019-04-12T08:06:13.483Z,1014.72
2019-04-12T08:07:18.095Z,1014.67
2019-04-12T08:08:23.515Z,1014.70
2019-04-12T08:09:22.097Z,1014.70
2019-04-12T08:10:31.944Z,1014.72
2019-04-12T08:11:37.066Z,1014.71
2019-04-12T08:12:43.525Z,1014.70
2019-04-12T08:13:44.757Z,1014.68
2019-04-12T08:14:50.822Z,1014.68
2019-04-12T08:16:02.999Z,1014.70
2019-04-12T08:17:07.006Z,1014.73
2019-04-12T08:18:07.725Z,1014.73
2019-04-12T08:19:14.589Z,1014.73
2019-04-12T08:20:25.657Z,1014.69
2019-04-12T08:21:24.540Z,1014.69
2019-04-12T08:22:31.405Z,1014.67
2019-04-12T08:23:36.330Z,1014.69
2019-04-12T08:24:50.466Z,1014.69
2019-04-12T08:25:51.301Z,1014.73
2019-04-12T08:26:54.679Z,1014.66
2019-04-12T08:27:58.390Z,1014.74
2019-04-12T08:29:03.302Z,1014.70
2019-04-12T08:30:19.584Z,1014.70
2019-04-12T08:31:17.032Z,1014.66
2019-04-12T08:32:24.304Z,1014.64
2019-04-12T08:33:20.012Z,1014.71
2019-04-12T08:34:36.917Z,1014.69
2019-04-12T08:35:39.894Z,1014.67
2019-04-12T08:36:43.178Z,1014.72
2019-04-12T08:37:46.774Z,1014.68
2019-04-12T08:38:59.788Z,1014.72
2019-04-12T08:39:58.296Z,1014.71
2019-04-12T08:41:00.613Z,1014.73
2019-04-12T08:42:08.977Z,1014.71
2019-04-12T08:43:20.592Z,1014.72
2019-04-12T08:44:22.034Z,1014.79
2019-04-12T08:45:27.674Z,1014.75
2019-04-12T08:46:34.459Z,1014.73
2019-04-12T08:47:34.458Z,1014.67
2019-04-12T08:48:39.496Z,1014.68
2019-04-12T08:49:55.247Z,1014.71
2019-04-12T08:50:54.435Z,1014.74
2019-04-12T08:51:52.721Z,1014.70
2019-04-12T08:53:10.557Z,1014.71
2019-04-12T08:54:08.103Z,1014.73
2019-04-12T08:55:20.307Z,1014.74
2019-04-12T08:56:26.031Z,1014.77
2019-04-12T08:57:22.623Z,1014.73
2019-04-12T08:58:35.393Z,1014.72
2019-04-12T08:59:35.906Z,1014.72
2019-04-12T09:00:41.040Z,1014.70
2019-04-12T09:01:48.981Z,1014.73
2019-04-12T09:02:58.762Z,1014.71
2019-04-12T09:03:54.957Z,1014.70
2019-04-12T09:05:01.217Z,1014.66
2019-04-12T09:06:09.639Z,1014.74
2019-04-12T09:07:14.259Z,1014.73
2019-04-12T09:08:19.744Z,1014.67
2019-04-12T09:09:29.271Z,1014.70
2019-04-12T09:10:31.857Z,1014.66
2019-04-12T09:11:34.509Z,1014.66
2019-04-12T09:12:41.967Z,1014.68
2019-04-12T09:13:47.918Z,1014.69
2019-04-12T09:14:49.334Z,1014.69
2019-04-12T09:16:00.572Z,1014.70
2019-04-12T09:17:10.133Z,1014.70
2019-04-12T09:18:17.344Z,1014.76
2019-04-12T09:19:22.539Z,1014.75
2019-04-12T09:20:29.025Z,1014.76
2019-04-12T09:21:22.307Z,1014.76
2019-04-12T09:22:31.134Z,1014.77
2019-04-12T09:23:39.173Z,1014.77
2019-04-12T09:24:40.024Z,1014.79
2019-04-12T09:25:43.922Z,1014.77
2019-04-12T09:26:52.020Z,1014.74
2019-04-12T09:27:56.633Z,1014.74
2019-04-12T09:29:12.921Z,1014.72
2019-04-12T09:30:09.487Z,1014.70
2019-04-12T09:31:16.821Z,1014.73
2019-04-12T09:32:18.687Z,1014.76
2019-04-12T09:33:22.414Z,1014.75
2019-04-12T09:34:30.468Z,1014.72
2019-04-12T09:35:40.678Z,1014.76
2019-04-12T09:36:39.184Z,1014.80
2019-04-12T09:37:48.099Z,1014.78
2019-04-12T09:38:57.120Z,1014.79
2019-04-12T09:39:58.354Z,1014.79
2019-04-12T09:41:11.058Z,1014.78
2019-04-12T09:42:15.373Z,1014.78
2019-04-12T09:43:20.903Z,1014.80
2019-04-12T09:44:22.447Z,1014.79
2019-04-12T09:45:36.999Z,1014.80
2019-04-12T09:46:34.929Z,1014.82
2019-04-12T09:47:43.049Z,1014.82
2019-04-12T09:48:46.238Z,1014.80
2019-04-12T09:49:53.097Z,1014.79
2019-04-12T09:50:54.849Z,1014.76
2019-04-12T09:52:01.918Z,1014.86
2019-04-12T09:53:14.834Z,1014.88
2019-04-12T09:54:14.061Z,1014.88
2019-04-12T09:55:20.374Z,1014.86
2019-04-12T09:56:22.432Z,1014.81
2019-04-12T09:57:27.454Z,1014.85
2019-04-12T09:58:37.518Z,1014.85
2019-04-12T09:59:37.396Z,1014.84
2019-04-12T10:00:41.406Z,1014.84
2019-04-12T10:01:55.128Z,1014.83
2019-04-12T10:03:00.152Z,1014.83
2019-04-12T10:04:02.617Z,1014.82
2019-04-12T10:05:07.032Z,1014.84
2019-04-12T10:06:18.296Z,1014.80
2019-04-12T10:07:22.611Z,1014.81
2019-04-12T10:08:26.956Z,1014.86
2019-04-12T10:09:27.434Z,1014.80
2019-04-12T10:10:43.107Z,1014.84
2019-04-12T10:11:39.121Z,1014.85
2019-04-12T10:12:48.650Z,1014.85
2019-04-12T10:13:47.834Z,1014.85
2019-04-12T10:15:00.540Z,1014.85
2019-04-12T10:16:05.772Z,1014.83
2019-04-12T10:17:14.993Z,1014.85
2019-04-12T10:18:17.675Z,1014.90
2019-04-12T10:19:21.358Z,1014.89
2019-04-12T10:20:34.369Z,1014.89
2019-04-12T10:21:35.807Z,1014.86
2019-04-12T10:22:41.653Z,1014.82
2019-04-12T10:23:45.354Z,1014.86
2019-04-12T10:24:50.678Z,1014.82
2019-04-12T10:25:50.174Z,1014.84
2019-04-12T10:27:01.035Z,1014.79
2019-04-12T10:28:13.330Z,1014.84
2019-04-12T10:29:12.001Z,1014.78
2019-04-12T10:30:14.057Z,1014.85
2019-04-12T10:31:21.848Z,1014.80
2019-04-12T10:32:26.870Z,1014.79
2019-04-12T10:33:34.356Z,1014.77
2019-04-12T10:34:34.671Z,1014.77
2019-04-12T10:35:37.847Z,1014.78
2019-04-12T10:36:55.672Z,1014.78
2019-04-12T10:37:57.730Z,1014.87
2019-04-12T10:39:05.933Z,1014.81
2019-04-12T10:40:05.527Z,1014.80
2019-04-12T10:41:11.470Z,1014.80
2019-04-12T10:42:16.495Z,1014.82
2019-04-12T10:43:24.493Z,1014.86
2019-04-12T10:44:29.413Z,1014.84
2019-04-12T10:45:31.263Z,1014.87
2019-04-12T10:46:40.281Z,1014.82
2019-04-12T10:47:53.701Z,1014.81
2019-04-12T10:48:46.131Z,1014.80
2019-04-12T10:49:56.582Z,1014.76
2019-04-12T10:51:06.660Z,1014.76
2019-04-12T10:52:06.231Z,1014.78
2019-04-12T10:53:09.300Z,1014.78
2019-04-12T10:54:21.189Z,1014.76
2019-04-12T10:55:24.368Z,1014.75
2019-04-12T10:56:22.634Z,1014.75
2019-04-12T10:57:33.801Z,1014.79
2019-04-12T10:58:39.751Z,1014.79
2019-04-12T10:59:50.310Z,1014.77
2019-04-12T11:00:46.215Z,1014.77
2019-04-12T11:01:58.721Z,1014.74
2019-04-12T11:02:59.948Z,1014.73
2019-04-12T11:04:04.567Z,1014.75
2019-04-12T11:05:14.504Z,1014.72
2019-04-12T11:06:15.537Z,1014.75
2019-04-12T11:07:23.019Z,1014.75
2019-04-12T11:08:35.423Z,1014.76
2019-04-12T11:09:42.392Z,1014.75
2019-04-12T11:11:02.464Z,1014.75
2019-04-12T11:11:53.254Z,1014.74
2019-04-12T11:12:57.663Z,1014.73
2019-04-12T11:14:09.244Z,1014.73
2019-04-12T11:15:20.378Z,1014.72
2019-04-12T11:16:21.436Z,1014.69
2019-04-12T11:17:16.124Z,1014.65
2019-04-12T11:18:30.465Z,1014.70
2019-04-12T11:19:37.947Z,1014.68
2019-04-12T11:20:37.032Z,1014.71
2019-04-12T11:21:47.891Z,1014.67
2019-04-12T11:22:46.883Z,1014.71
2019-04-12T11:24:01.013Z,1014.72
2019-04-12T11:25:23.050Z,1014.66
2019-04-12T11:26:15.262Z,1014.68
2019-04-12T11:27:11.482Z,1014.63
2019-04-12T11:28:22.650Z,1014.63
2019-04-12T11:29:22.759Z,1014.60
2019-04-12T11:30:21.843Z,1014.63
2019-04-12T11:31:45.506Z,1014.63
2019-04-12T11:32:33.738Z,1014.64
2019-04-12T11:34:06.508Z,1014.64
2019-04-12T11:35:17.369Z,1014.66
2019-04-12T11:36:15.637Z,1014.62
2019-04-12T11:37:02.330Z,1014.66
2019-04-12T11:38:08.277Z,1014.63
2019-04-12T11:39:16.278Z,1014.67
2019-04-12T11:40:36.247Z,1014.65
2019-04-12T11:41:35.127Z,1014.69
2019-04-12T11:43:06.064Z,1014.66
2019-04-12T11:44:17.027Z,1014.63
2019-04-12T11:45:14.066Z,1014.65
2019-04-12T11:46:36.405Z,1014.64
2019-04-12T11:47:21.052Z,1014.62
2019-04-12T11:48:37.224Z,1014.65
2019-04-12T11:49:20.865Z,1014.62
2019-04-12T11:50:30.886Z,1014.62
2019-04-12T11:51:20.657Z,1014.63
2019-04-12T11:52:52.716Z,1014.61
2019-04-12T11:53:37.668Z,1014.63
2019-04-12T11:54:57.642Z,1014.64
2019-04-12T11:55:55.702Z,1014.60
2019-04-12T11:57:22.655Z,1014.60
2019-04-12T11:58:41.191Z,1014.60
2019-04-12T11:58:50.604Z,1014.60
2019-04-12T12:00:43.248Z,1014.66
2019-04-12T12:01:39.052Z,1014.62
2019-04-12T12:02:34.248Z,1014.66
2019-04-12T12:03:45.220Z,1014.63
2019-04-12T12:04:54.126Z,1014.63
2019-04-12T12:06:10.118Z,1014.63
2019-04-12T12:07:49.190Z,1014.60
2019-04-12T12:08:57.952Z,1014.64
2019-04-12T12:09:41.980Z,1014.69
2019-04-12T12:11:15.671Z,1014.66
2019-04-12T12:12:07.900Z,1014.66
2019-04-12T12:13:24.810Z,1014.67
2019-04-12T12:14:39.970Z,1014.65
2019-04-12T12:16:00.656Z,1014.62
2019-04-12T12:16:38.746Z,1014.65
2019-04-12T12:17:57.598Z,1014.69
2019-04-12T12:19:55.373Z,1014.62
2019-04-12T12:20:42.571Z,1014.67
2019-04-12T12:21:44.831Z,1014.66
2019-04-12T12:23:31.323Z,1014.62
2019-04-12T12:25:09.318Z,1014.68
2019-04-12T12:26:09.227Z,1014.60
2019-04-12T12:26:33.406Z,1014.68
2019-04-12T12:28:19.988Z,1014.65
2019-04-12T12:29:41.738Z,1014.60
2019-04-12T12:30:40.387Z,1014.64
2019-04-12T12:31:38.339Z,1014.62
2019-04-12T12:33:26.788Z,1014.58
2019-04-12T12:34:20.129Z,1014.60
2019-04-12T12:35:33.889Z,1014.60
2019-04-12T12:36:29.064Z,1014.58
2019-04-12T12:37:24.760Z,1014.58
2019-04-12T12:38:20.877Z,1014.60
2019-04-12T12:39:39.010Z,1014.62
2019-04-12T12:40:58.067Z,1014.62
2019-04-12T12:42:02.468Z,1014.58
2019-04-12T12:42:36.672Z,1014.58
2019-04-12T12:43:48.454Z,1014.62
2019-04-12T12:45:30.651Z,1014.65
2019-04-12T12:46:15.607Z,1014.62
2019-04-12T12:47:29.948Z,1014.59
2019-04-12T12:48:24.324Z,1014.65
2019-04-12T12:49:51.173Z,1014.58
2019-04-12T12:50:20.754Z,1014.60
2019-04-12T12:52:04.286Z,1014.61
2019-04-12T12:52:48.209Z,1014.61
2019-04-12T12:53:45.967Z,1014.65
2019-04-12T12:54:47.303Z,1014.60
2019-04-12T12:55:45.671Z,1014.59
2019-04-12T12:57:16.707Z,1014.60
2019-04-12T12:58:20.202Z,1014.63
2019-04-12T12:59:12.008Z,1014.54
2019-04-12T13:00:19.080Z,1014.54
2019-04-12T13:01:33.329Z,1014.52
2019-04-12T13:02:30.976Z,1014.57
2019-04-12T13:03:40.510Z,1014.58
2019-04-12T13:04:58.742Z,1014.52
2019-04-12T13:06:07.651Z,1014.51
2019-04-12T13:06:49.741Z,1014.52
2019-04-12T13:08:08.486Z,1014.53
2019-04-12T13:09:03.885Z,1014.50
2019-04-12T13:10:04.101Z,1014.47
2019-04-12T13:11:14.652Z,1014.51
2019-04-12T13:12:16.603Z,1014.46
2019-04-12T13:13:26.029Z,1014.41
2019-04-12T13:14:40.492Z,1014.48
2019-04-12T13:15:30.854Z,1014.49